sensor_id;sensor_type;location;lat;lon;timestamp;P1;P2;P0
55591;PMS5003;41454;53.396;-1.510;2023-10-19T00:02:19;8;7;
55591;PMS5003;41454;53.396;-1.510;2023-10-19T00:04:47;6;5;
55591;PMS5003;41454;53.396;-1.510;2023-10-19T00:07:14;6;6;
55591;PMS5003;41454;53.396;-1.510;2023-10-19T00:09:42;4;4;
55591;PMS5003;41454;53.396;-1.510;2023-10-19T00:12:09;5;4;
55591;PMS5003;41454;53.396;-1.510;2023-10-19T00:14:36;5;5;
55591;PMS5003;41454;53.396;-1.510;2023-10-19T00:17:04;3;3;
55591;PMS5003;41454;53.396;-1.510;2023-10-19T00:19:32;4;4;
55591;PMS5003;41454;53.396;-1.510;2023-10-19T00:21:59;5;3;
55591;PMS5003;41454;53.396;-1.510;2023-10-19T00:24:27;4;4;
55591;PMS5003;41454;53.396;-1.510;2023-10-19T00:26:55;2;2;
55591;PMS5003;41454;53.396;-1.510;2023-10-19T00:29:22;2;2;
55591;PMS5003;41454;53.396;-1.510;2023-10-19T00:31:50;2;2;
55591;PMS5003;41454;53.396;-1.510;2023-10-19T00:34:17;3;3;
55591;PMS5003;41454;53.396;-1.510;2023-10-19T00:36:45;3;3;
55591;PMS5003;41454;53.396;-1.510;2023-10-19T00:39:12;3;3;
55591;PMS5003;41454;53.396;-1.510;2023-10-19T00:41:39;4;3;
55591;PMS5003;41454;53.396;-1.510;2023-10-19T00:44:06;2;2;
55591;PMS5003;41454;53.396;-1.510;2023-10-19T00:46:33;2;2;
55591;PMS5003;41454;53.396;-1.510;2023-10-19T00:49:01;3;3;
55591;PMS5003;41454;53.396;-1.510;2023-10-19T00:51:29;5;5;
55591;PMS5003;41454;53.396;-1.510;2023-10-19T00:54:00;3;2;
55591;PMS5003;41454;53.396;-1.510;2023-10-19T00:56:30;2;1;
55591;PMS5003;41454;53.396;-1.510;2023-10-19T00:58:58;3;2;
55591;PMS5003;41454;53.396;-1.510;2023-10-19T01:01:26;3;3;
55591;PMS5003;41454;53.396;-1.510;2023-10-19T01:03:55;1;1;
55591;PMS5003;41454;53.396;-1.510;2023-10-19T01:06:23;2;2;
55591;PMS5003;41454;53.396;-1.510;2023-10-19T01:08:50;3;3;
55591;PMS5003;41454;53.396;-1.510;2023-10-19T01:11:18;2;2;
55591;PMS5003;41454;53.396;-1.510;2023-10-19T01:13:47;1;1;
55591;PMS5003;41454;53.396;-1.510;2023-10-19T01:16:14;2;1;
55591;PMS5003;41454;53.396;-1.510;2023-10-19T01:18:41;1;1;
55591;PMS5003;41454;53.396;-1.510;2023-10-19T01:21:08;1;1;
55591;PMS5003;41454;53.396;-1.510;2023-10-19T01:23:37;3;2;
55591;PMS5003;41454;53.396;-1.510;2023-10-19T01:26:04;2;2;
55591;PMS5003;41454;53.396;-1.510;2023-10-19T01:28:31;2;2;
55591;PMS5003;41454;53.396;-1.510;2023-10-19T01:31:00;1;1;
55591;PMS5003;41454;53.396;-1.510;2023-10-19T01:33:27;1;1;
55591;PMS5003;41454;53.396;-1.510;2023-10-19T01:35:55;1;1;
55591;PMS5003;41454;53.396;-1.510;2023-10-19T01:38:22;3;2;
55591;PMS5003;41454;53.396;-1.510;2023-10-19T01:40:50;2;2;
55591;PMS5003;41454;53.396;-1.510;2023-10-19T01:43:17;1;1;
55591;PMS5003;41454;53.396;-1.510;2023-10-19T01:45:45;3;2;
55591;PMS5003;41454;53.396;-1.510;2023-10-19T01:48:13;2;1;
55591;PMS5003;41454;53.396;-1.510;2023-10-19T01:50:40;1;1;
55591;PMS5003;41454;53.396;-1.510;2023-10-19T01:53:08;0;0;
55591;PMS5003;41454;53.396;-1.510;2023-10-19T01:55:36;1;1;
55591;PMS5003;41454;53.396;-1.510;2023-10-19T01:58:04;1;1;
55591;PMS5003;41454;53.396;-1.510;2023-10-19T02:00:32;1;1;
55591;PMS5003;41454;53.396;-1.510;2023-10-19T02:03:00;0;0;
55591;PMS5003;41454;53.396;-1.510;2023-10-19T02:05:28;0;0;
55591;PMS5003;41454;53.396;-1.510;2023-10-19T02:07:55;0;0;
55591;PMS5003;41454;53.396;-1.510;2023-10-19T02:10:23;1;1;
55591;PMS5003;41454;53.396;-1.510;2023-10-19T02:12:50;0;0;
55591;PMS5003;41454;53.396;-1.510;2023-10-19T02:15:18;0;0;
55591;PMS5003;41454;53.396;-1.510;2023-10-19T02:17:45;0;0;
55591;PMS5003;41454;53.396;-1.510;2023-10-19T02:20:13;0;0;
55591;PMS5003;41454;53.396;-1.510;2023-10-19T02:22:40;0;0;
55591;PMS5003;41454;53.396;-1.510;2023-10-19T02:25:08;0;0;
55591;PMS5003;41454;53.396;-1.510;2023-10-19T02:27:36;0;0;
55591;PMS5003;41454;53.396;-1.510;2023-10-19T02:30:03;0;0;
55591;PMS5003;41454;53.396;-1.510;2023-10-19T02:32:31;0;0;
55591;PMS5003;41454;53.396;-1.510;2023-10-19T02:34:59;0;0;
55591;PMS5003;41454;53.396;-1.510;2023-10-19T02:37:26;0;0;
55591;PMS5003;41454;53.396;-1.510;2023-10-19T02:39:54;0;0;
55591;PMS5003;41454;53.396;-1.510;2023-10-19T02:42:21;0;0;
55591;PMS5003;41454;53.396;-1.510;2023-10-19T02:44:49;0;0;
55591;PMS5003;41454;53.396;-1.510;2023-10-19T02:47:16;0;0;
55591;PMS5003;41454;53.396;-1.510;2023-10-19T02:49:44;0;0;
55591;PMS5003;41454;53.396;-1.510;2023-10-19T02:52:11;0;0;
55591;PMS5003;41454;53.396;-1.510;2023-10-19T02:54:38;0;0;
55591;PMS5003;41454;53.396;-1.510;2023-10-19T02:57:06;0;0;
55591;PMS5003;41454;53.396;-1.510;2023-10-19T02:59:34;0;0;
55591;PMS5003;41454;53.396;-1.510;2023-10-19T03:02:02;0;0;
55591;PMS5003;41454;53.396;-1.510;2023-10-19T03:04:30;0;0;
55591;PMS5003;41454;53.396;-1.510;2023-10-19T03:07:00;0;0;
55591;PMS5003;41454;53.396;-1.510;2023-10-19T03:09:28;0;0;
55591;PMS5003;41454;53.396;-1.510;2023-10-19T03:11:56;0;0;
55591;PMS5003;41454;53.396;-1.510;2023-10-19T03:14:24;0;0;
55591;PMS5003;41454;53.396;-1.510;2023-10-19T03:16:52;0;0;
55591;PMS5003;41454;53.396;-1.510;2023-10-19T03:19:19;0;0;
55591;PMS5003;41454;53.396;-1.510;2023-10-19T03:21:47;1;1;
55591;PMS5003;41454;53.396;-1.510;2023-10-19T03:24:15;0;0;
55591;PMS5003;41454;53.396;-1.510;2023-10-19T03:26:42;0;0;
55591;PMS5003;41454;53.396;-1.510;2023-10-19T03:29:09;0;0;
55591;PMS5003;41454;53.396;-1.510;2023-10-19T03:31:37;0;0;
55591;PMS5003;41454;53.396;-1.510;2023-10-19T03:34:05;0;0;
55591;PMS5003;41454;53.396;-1.510;2023-10-19T03:36:32;0;0;
55591;PMS5003;41454;53.396;-1.510;2023-10-19T03:38:59;4;4;
55591;PMS5003;41454;53.396;-1.510;2023-10-19T03:41:27;3;2;
55591;PMS5003;41454;53.396;-1.510;2023-10-19T03:43:54;4;3;
55591;PMS5003;41454;53.396;-1.510;2023-10-19T03:46:22;6;5;
55591;PMS5003;41454;53.396;-1.510;2023-10-19T03:48:50;6;6;
55591;PMS5003;41454;53.396;-1.510;2023-10-19T03:51:17;7;6;
55591;PMS5003;41454;53.396;-1.510;2023-10-19T03:53:44;4;4;
55591;PMS5003;41454;53.396;-1.510;2023-10-19T03:56:11;6;5;
55591;PMS5003;41454;53.396;-1.510;2023-10-19T03:58:38;5;5;
55591;PMS5003;41454;53.396;-1.510;2023-10-19T04:01:05;6;6;
55591;PMS5003;41454;53.396;-1.510;2023-10-19T04:03:32;7;6;
55591;PMS5003;41454;53.396;-1.510;2023-10-19T04:06:00;8;6;
55591;PMS5003;41454;53.396;-1.510;2023-10-19T04:08:27;9;8;
55591;PMS5003;41454;53.396;-1.510;2023-10-19T04:10:55;8;8;
55591;PMS5003;41454;53.396;-1.510;2023-10-19T04:13:23;9;8;
55591;PMS5003;41454;53.396;-1.510;2023-10-19T04:15:50;6;6;
55591;PMS5003;41454;53.396;-1.510;2023-10-19T04:18:17;8;6;
55591;PMS5003;41454;53.396;-1.510;2023-10-19T04:20:44;7;6;
55591;PMS5003;41454;53.396;-1.510;2023-10-19T04:23:10;9;8;
55591;PMS5003;41454;53.396;-1.510;2023-10-19T04:25:37;7;6;
55591;PMS5003;41454;53.396;-1.510;2023-10-19T04:28:05;9;9;
55591;PMS5003;41454;53.396;-1.510;2023-10-19T04:30:32;8;8;
55591;PMS5003;41454;53.396;-1.510;2023-10-19T04:32:59;8;6;
55591;PMS5003;41454;53.396;-1.510;2023-10-19T04:35:27;9;9;
55591;PMS5003;41454;53.396;-1.510;2023-10-19T04:37:54;9;8;
55591;PMS5003;41454;53.396;-1.510;2023-10-19T04:40:22;7;7;
55591;PMS5003;41454;53.396;-1.510;2023-10-19T04:42:50;8;8;
55591;PMS5003;41454;53.396;-1.510;2023-10-19T04:45:17;12;11;
55591;PMS5003;41454;53.396;-1.510;2023-10-19T04:47:45;11;8;
55591;PMS5003;41454;53.396;-1.510;2023-10-19T04:50:12;9;9;
55591;PMS5003;41454;53.396;-1.510;2023-10-19T04:52:40;9;9;
55591;PMS5003;41454;53.396;-1.510;2023-10-19T04:55:07;9;9;
55591;PMS5003;41454;53.396;-1.510;2023-10-19T04:57:35;9;9;
55591;PMS5003;41454;53.396;-1.510;2023-10-19T05:00:02;9;7;
55591;PMS5003;41454;53.396;-1.510;2023-10-19T05:02:30;6;6;
55591;PMS5003;41454;53.396;-1.510;2023-10-19T05:04:57;7;7;
55591;PMS5003;41454;53.396;-1.510;2023-10-19T05:07:25;8;7;
55591;PMS5003;41454;53.396;-1.510;2023-10-19T05:09:52;12;9;
55591;PMS5003;41454;53.396;-1.510;2023-10-19T05:12:20;6;5;
55591;PMS5003;41454;53.396;-1.510;2023-10-19T05:14:47;6;5;
55591;PMS5003;41454;53.396;-1.510;2023-10-19T05:17:15;7;7;
55591;PMS5003;41454;53.396;-1.510;2023-10-19T05:19:43;6;6;
55591;PMS5003;41454;53.396;-1.510;2023-10-19T05:22:10;4;4;
55591;PMS5003;41454;53.396;-1.510;2023-10-19T05:24:37;7;7;
55591;PMS5003;41454;53.396;-1.510;2023-10-19T05:27:04;3;3;
55591;PMS5003;41454;53.396;-1.510;2023-10-19T05:29:31;5;5;
55591;PMS5003;41454;53.396;-1.510;2023-10-19T05:31:58;4;4;
55591;PMS5003;41454;53.396;-1.510;2023-10-19T05:34:26;7;5;
55591;PMS5003;41454;53.396;-1.510;2023-10-19T05:36:53;6;6;
55591;PMS5003;41454;53.396;-1.510;2023-10-19T05:39:21;4;4;
55591;PMS5003;41454;53.396;-1.510;2023-10-19T05:41:49;7;7;
55591;PMS5003;41454;53.396;-1.510;2023-10-19T05:44:16;6;6;
55591;PMS5003;41454;53.396;-1.510;2023-10-19T05:46:43;5;3;
55591;PMS5003;41454;53.396;-1.510;2023-10-19T05:49:10;6;6;
55591;PMS5003;41454;53.396;-1.510;2023-10-19T05:51:38;3;3;
55591;PMS5003;41454;53.396;-1.510;2023-10-19T05:54:05;4;4;
55591;PMS5003;41454;53.396;-1.510;2023-10-19T05:56:33;5;3;
55591;PMS5003;41454;53.396;-1.510;2023-10-19T05:59:00;4;4;
55591;PMS5003;41454;53.396;-1.510;2023-10-19T06:01:28;4;4;
55591;PMS5003;41454;53.396;-1.510;2023-10-19T06:03:56;5;5;
55591;PMS5003;41454;53.396;-1.510;2023-10-19T06:06:23;7;4;
55591;PMS5003;41454;53.396;-1.510;2023-10-19T06:08:51;3;3;
55591;PMS5003;41454;53.396;-1.510;2023-10-19T06:11:18;4;4;
55591;PMS5003;41454;53.396;-1.510;2023-10-19T06:13:46;6;5;
55591;PMS5003;41454;53.396;-1.510;2023-10-19T06:16:13;5;5;
55591;PMS5003;41454;53.396;-1.510;2023-10-19T06:18:40;7;7;
55591;PMS5003;41454;53.396;-1.510;2023-10-19T06:21:09;5;5;
55591;PMS5003;41454;53.396;-1.510;2023-10-19T06:23:36;7;7;
55591;PMS5003;41454;53.396;-1.510;2023-10-19T06:26:08;10;8;
55591;PMS5003;41454;53.396;-1.510;2023-10-19T06:28:36;11;9;
55591;PMS5003;41454;53.396;-1.510;2023-10-19T06:31:03;11;10;
55591;PMS5003;41454;53.396;-1.510;2023-10-19T06:33:31;13;12;
55591;PMS5003;41454;53.396;-1.510;2023-10-19T06:36:03;11;8;
55591;PMS5003;41454;53.396;-1.510;2023-10-19T06:38:30;7;7;
55591;PMS5003;41454;53.396;-1.510;2023-10-19T06:40:59;8;8;
55591;PMS5003;41454;53.396;-1.510;2023-10-19T06:43:26;7;7;
55591;PMS5003;41454;53.396;-1.510;2023-10-19T06:45:55;12;8;
55591;PMS5003;41454;53.396;-1.510;2023-10-19T06:48:29;10;9;
55591;PMS5003;41454;53.396;-1.510;2023-10-19T06:50:56;7;7;
55591;PMS5003;41454;53.396;-1.510;2023-10-19T06:53:23;8;8;
55591;PMS5003;41454;53.396;-1.510;2023-10-19T06:55:51;8;8;
55591;PMS5003;41454;53.396;-1.510;2023-10-19T06:58:18;8;7;
55591;PMS5003;41454;53.396;-1.510;2023-10-19T07:00:45;7;7;
55591;PMS5003;41454;53.396;-1.510;2023-10-19T07:03:13;5;5;
55591;PMS5003;41454;53.396;-1.510;2023-10-19T07:05:40;7;6;
55591;PMS5003;41454;53.396;-1.510;2023-10-19T07:08:08;8;5;
55591;PMS5003;41454;53.396;-1.510;2023-10-19T07:10:35;6;6;
55591;PMS5003;41454;53.396;-1.510;2023-10-19T07:13:02;8;7;
55591;PMS5003;41454;53.396;-1.510;2023-10-19T07:15:30;7;7;
55591;PMS5003;41454;53.396;-1.510;2023-10-19T07:17:57;8;8;
55591;PMS5003;41454;53.396;-1.510;2023-10-19T07:20:25;8;8;
55591;PMS5003;41454;53.396;-1.510;2023-10-19T07:22:53;7;7;
55591;PMS5003;41454;53.396;-1.510;2023-10-19T07:25:20;9;7;
55591;PMS5003;41454;53.396;-1.510;2023-10-19T07:27:48;6;6;
55591;PMS5003;41454;53.396;-1.510;2023-10-19T07:30:15;8;7;
55591;PMS5003;41454;53.396;-1.510;2023-10-19T07:32:43;8;7;
55591;PMS5003;41454;53.396;-1.510;2023-10-19T07:35:10;7;5;
55591;PMS5003;41454;53.396;-1.510;2023-10-19T07:37:37;5;5;
55591;PMS5003;41454;53.396;-1.510;2023-10-19T07:40:05;6;5;
55591;PMS5003;41454;53.396;-1.510;2023-10-19T07:42:33;9;6;
55591;PMS5003;41454;53.396;-1.510;2023-10-19T07:45:00;9;8;
55591;PMS5003;41454;53.396;-1.510;2023-10-19T07:47:28;10;7;
55591;PMS5003;41454;53.396;-1.510;2023-10-19T07:49:55;7;6;
55591;PMS5003;41454;53.396;-1.510;2023-10-19T07:52:23;8;6;
55591;PMS5003;41454;53.396;-1.510;2023-10-19T07:54:50;5;5;
55591;PMS5003;41454;53.396;-1.510;2023-10-19T07:57:18;6;5;
55591;PMS5003;41454;53.396;-1.510;2023-10-19T07:59:46;4;4;
55591;PMS5003;41454;53.396;-1.510;2023-10-19T08:02:13;6;6;
55591;PMS5003;41454;53.396;-1.510;2023-10-19T08:04:41;6;6;
55591;PMS5003;41454;53.396;-1.510;2023-10-19T08:07:08;7;6;
55591;PMS5003;41454;53.396;-1.510;2023-10-19T08:09:35;7;7;
55591;PMS5003;41454;53.396;-1.510;2023-10-19T08:12:02;6;6;
55591;PMS5003;41454;53.396;-1.510;2023-10-19T08:14:30;5;5;
55591;PMS5003;41454;53.396;-1.510;2023-10-19T08:16:57;7;5;
55591;PMS5003;41454;53.396;-1.510;2023-10-19T08:19:25;5;5;
55591;PMS5003;41454;53.396;-1.510;2023-10-19T08:21:53;4;4;
55591;PMS5003;41454;53.396;-1.510;2023-10-19T08:24:21;5;4;
55591;PMS5003;41454;53.396;-1.510;2023-10-19T08:26:48;4;4;
55591;PMS5003;41454;53.396;-1.510;2023-10-19T08:29:16;5;4;
55591;PMS5003;41454;53.396;-1.510;2023-10-19T08:31:43;6;6;
55591;PMS5003;41454;53.396;-1.510;2023-10-19T08:34:11;5;5;
55591;PMS5003;41454;53.396;-1.510;2023-10-19T08:36:38;6;6;
55591;PMS5003;41454;53.396;-1.510;2023-10-19T08:39:08;5;5;
55591;PMS5003;41454;53.396;-1.510;2023-10-19T08:41:36;3;3;
55591;PMS5003;41454;53.396;-1.510;2023-10-19T08:44:06;5;5;
55591;PMS5003;41454;53.396;-1.510;2023-10-19T08:46:34;6;6;
55591;PMS5003;41454;53.396;-1.510;2023-10-19T08:49:01;4;4;
55591;PMS5003;41454;53.396;-1.510;2023-10-19T08:51:29;3;3;
55591;PMS5003;41454;53.396;-1.510;2023-10-19T08:53:56;5;5;
55591;PMS5003;41454;53.396;-1.510;2023-10-19T08:56:24;6;6;
55591;PMS5003;41454;53.396;-1.510;2023-10-19T08:58:51;8;5;
55591;PMS5003;41454;53.396;-1.510;2023-10-19T09:01:19;6;6;
55591;PMS5003;41454;53.396;-1.510;2023-10-19T09:03:46;8;7;
55591;PMS5003;41454;53.396;-1.510;2023-10-19T09:06:13;7;6;
55591;PMS5003;41454;53.396;-1.510;2023-10-19T09:08:40;8;8;
55591;PMS5003;41454;53.396;-1.510;2023-10-19T09:11:08;12;11;
55591;PMS5003;41454;53.396;-1.510;2023-10-19T09:13:42;9;9;
55591;PMS5003;41454;53.396;-1.510;2023-10-19T09:16:10;10;8;
55591;PMS5003;41454;53.396;-1.510;2023-10-19T09:18:37;13;10;
55591;PMS5003;41454;53.396;-1.510;2023-10-19T09:21:06;12;10;
55591;PMS5003;41454;53.396;-1.510;2023-10-19T09:23:34;9;9;
55591;PMS5003;41454;53.396;-1.510;2023-10-19T09:26:03;9;8;
55591;PMS5003;41454;53.396;-1.510;2023-10-19T09:28:31;10;8;
55591;PMS5003;41454;53.396;-1.510;2023-10-19T09:31:00;10;9;
55591;PMS5003;41454;53.396;-1.510;2023-10-19T09:33:27;10;9;
55591;PMS5003;41454;53.396;-1.510;2023-10-19T09:35:57;8;8;
55591;PMS5003;41454;53.396;-1.510;2023-10-19T09:38:27;11;10;
55591;PMS5003;41454;53.396;-1.510;2023-10-19T09:40:55;10;8;
55591;PMS5003;41454;53.396;-1.510;2023-10-19T09:43:24;6;6;
55591;PMS5003;41454;53.396;-1.510;2023-10-19T09:46:00;10;9;
55591;PMS5003;41454;53.396;-1.510;2023-10-19T09:48:34;9;7;
55591;PMS5003;41454;53.396;-1.510;2023-10-19T09:51:06;4;4;
55591;PMS5003;41454;53.396;-1.510;2023-10-19T09:53:34;6;6;
55591;PMS5003;41454;53.396;-1.510;2023-10-19T09:56:03;5;4;
55591;PMS5003;41454;53.396;-1.510;2023-10-19T09:58:35;6;5;
55591;PMS5003;41454;53.396;-1.510;2023-10-19T10:01:07;3;3;
55591;PMS5003;41454;53.396;-1.510;2023-10-19T10:03:42;2;2;
55591;PMS5003;41454;53.396;-1.510;2023-10-19T10:06:09;5;4;
55591;PMS5003;41454;53.396;-1.510;2023-10-19T10:08:38;6;4;
55591;PMS5003;41454;53.396;-1.510;2023-10-19T10:11:15;6;4;
55591;PMS5003;41454;53.396;-1.510;2023-10-19T10:13:44;5;4;
55591;PMS5003;41454;53.396;-1.510;2023-10-19T10:16:13;4;4;
55591;PMS5003;41454;53.396;-1.510;2023-10-19T10:18:40;4;4;
55591;PMS5003;41454;53.396;-1.510;2023-10-19T10:21:10;4;4;
55591;PMS5003;41454;53.396;-1.510;2023-10-19T10:23:40;5;5;
55591;PMS5003;41454;53.396;-1.510;2023-10-19T10:26:08;3;3;
55591;PMS5003;41454;53.396;-1.510;2023-10-19T10:28:36;3;3;
55591;PMS5003;41454;53.396;-1.510;2023-10-19T10:31:06;4;3;
55591;PMS5003;41454;53.396;-1.510;2023-10-19T10:33:38;2;2;
55591;PMS5003;41454;53.396;-1.510;2023-10-19T10:36:07;3;3;
55591;PMS5003;41454;53.396;-1.510;2023-10-19T10:38:34;3;3;
55591;PMS5003;41454;53.396;-1.510;2023-10-19T10:41:02;6;3;
55591;PMS5003;41454;53.396;-1.510;2023-10-19T10:43:30;2;2;
55591;PMS5003;41454;53.396;-1.510;2023-10-19T10:46:05;5;5;
55591;PMS5003;41454;53.396;-1.510;2023-10-19T10:48:33;4;4;
55591;PMS5003;41454;53.396;-1.510;2023-10-19T10:51:01;6;5;
55591;PMS5003;41454;53.396;-1.510;2023-10-19T10:53:28;3;3;
55591;PMS5003;41454;53.396;-1.510;2023-10-19T10:55:59;3;3;
55591;PMS5003;41454;53.396;-1.510;2023-10-19T10:58:27;4;3;
55591;PMS5003;41454;53.396;-1.510;2023-10-19T11:00:54;7;5;
55591;PMS5003;41454;53.396;-1.510;2023-10-19T11:03:21;7;5;
55591;PMS5003;41454;53.396;-1.510;2023-10-19T11:05:48;4;4;
55591;PMS5003;41454;53.396;-1.510;2023-10-19T11:08:16;4;4;
55591;PMS5003;41454;53.396;-1.510;2023-10-19T11:10:44;5;5;
55591;PMS5003;41454;53.396;-1.510;2023-10-19T11:13:13;6;4;
55591;PMS5003;41454;53.396;-1.510;2023-10-19T11:15:47;7;4;
55591;PMS5003;41454;53.396;-1.510;2023-10-19T11:18:27;3;3;
55591;PMS5003;41454;53.396;-1.510;2023-10-19T11:20:56;4;2;
55591;PMS5003;41454;53.396;-1.510;2023-10-19T11:23:34;6;6;
55591;PMS5003;41454;53.396;-1.510;2023-10-19T11:26:03;5;4;
55591;PMS5003;41454;53.396;-1.510;2023-10-19T11:28:30;6;5;
55591;PMS5003;41454;53.396;-1.510;2023-10-19T11:31:10;7;6;
55591;PMS5003;41454;53.396;-1.510;2023-10-19T11:33:37;6;5;
55591;PMS5003;41454;53.396;-1.510;2023-10-19T11:36:05;6;5;
55591;PMS5003;41454;53.396;-1.510;2023-10-19T11:38:33;6;6;
55591;PMS5003;41454;53.396;-1.510;2023-10-19T11:41:00;5;3;
55591;PMS5003;41454;53.396;-1.510;2023-10-19T11:43:27;5;5;
55591;PMS5003;41454;53.396;-1.510;2023-10-19T11:45:54;4;4;
55591;PMS5003;41454;53.396;-1.510;2023-10-19T11:48:21;5;5;
55591;PMS5003;41454;53.396;-1.510;2023-10-19T11:50:49;6;6;
55591;PMS5003;41454;53.396;-1.510;2023-10-19T11:53:16;3;3;
55591;PMS5003;41454;53.396;-1.510;2023-10-19T11:55:43;7;4;
55591;PMS5003;41454;53.396;-1.510;2023-10-19T11:58:10;6;5;
55591;PMS5003;41454;53.396;-1.510;2023-10-19T12:00:38;6;6;
55591;PMS5003;41454;53.396;-1.510;2023-10-19T12:03:05;3;3;
55591;PMS5003;41454;53.396;-1.510;2023-10-19T12:05:33;7;4;
55591;PMS5003;41454;53.396;-1.510;2023-10-19T12:08:00;5;5;
55591;PMS5003;41454;53.396;-1.510;2023-10-19T12:10:28;2;2;
55591;PMS5003;41454;53.396;-1.510;2023-10-19T12:12:55;3;2;
55591;PMS5003;41454;53.396;-1.510;2023-10-19T12:15:22;5;5;
55591;PMS5003;41454;53.396;-1.510;2023-10-19T12:17:50;2;2;
55591;PMS5003;41454;53.396;-1.510;2023-10-19T12:20:18;4;4;
55591;PMS5003;41454;53.396;-1.510;2023-10-19T12:22:45;3;3;
55591;PMS5003;41454;53.396;-1.510;2023-10-19T12:25:13;1;1;
55591;PMS5003;41454;53.396;-1.510;2023-10-19T12:27:40;3;3;
55591;PMS5003;41454;53.396;-1.510;2023-10-19T12:30:08;2;2;
55591;PMS5003;41454;53.396;-1.510;2023-10-19T12:32:35;3;3;
55591;PMS5003;41454;53.396;-1.510;2023-10-19T12:35:03;1;1;
55591;PMS5003;41454;53.396;-1.510;2023-10-19T12:37:31;4;4;
55591;PMS5003;41454;53.396;-1.510;2023-10-19T12:39:58;2;2;
55591;PMS5003;41454;53.396;-1.510;2023-10-19T12:42:27;3;3;
55591;PMS5003;41454;53.396;-1.510;2023-10-19T12:44:54;2;2;
55591;PMS5003;41454;53.396;-1.510;2023-10-19T12:47:22;5;3;
55591;PMS5003;41454;53.396;-1.510;2023-10-19T12:49:49;4;4;
55591;PMS5003;41454;53.396;-1.510;2023-10-19T12:52:21;3;3;
55591;PMS5003;41454;53.396;-1.510;2023-10-19T12:54:49;3;3;
55591;PMS5003;41454;53.396;-1.510;2023-10-19T12:57:16;3;3;
55591;PMS5003;41454;53.396;-1.510;2023-10-19T12:59:43;3;3;
55591;PMS5003;41454;53.396;-1.510;2023-10-19T13:02:11;5;1;
55591;PMS5003;41454;53.396;-1.510;2023-10-19T13:04:38;5;4;
55591;PMS5003;41454;53.396;-1.510;2023-10-19T13:07:05;4;4;
55591;PMS5003;41454;53.396;-1.510;2023-10-19T13:09:33;4;4;
55591;PMS5003;41454;53.396;-1.510;2023-10-19T13:12:01;4;4;
55591;PMS5003;41454;53.396;-1.510;2023-10-19T13:14:28;6;4;
55591;PMS5003;41454;53.396;-1.510;2023-10-19T13:16:56;3;3;
55591;PMS5003;41454;53.396;-1.510;2023-10-19T13:19:23;3;3;
55591;PMS5003;41454;53.396;-1.510;2023-10-19T13:21:51;6;6;
55591;PMS5003;41454;53.396;-1.510;2023-10-19T13:24:18;7;5;
55591;PMS5003;41454;53.396;-1.510;2023-10-19T13:26:45;5;5;
55591;PMS5003;41454;53.396;-1.510;2023-10-19T13:29:13;3;2;
55591;PMS5003;41454;53.396;-1.510;2023-10-19T13:31:41;5;5;
55591;PMS5003;41454;53.396;-1.510;2023-10-19T13:34:08;4;3;
55591;PMS5003;41454;53.396;-1.510;2023-10-19T13:36:35;4;4;
55591;PMS5003;41454;53.396;-1.510;2023-10-19T13:39:02;4;4;
55591;PMS5003;41454;53.396;-1.510;2023-10-19T13:41:30;4;4;
55591;PMS5003;41454;53.396;-1.510;2023-10-19T13:43:56;9;8;
55591;PMS5003;41454;53.396;-1.510;2023-10-19T13:46:24;2;2;
55591;PMS5003;41454;53.396;-1.510;2023-10-19T13:48:51;3;3;
55591;PMS5003;41454;53.396;-1.510;2023-10-19T13:51:19;6;4;
55591;PMS5003;41454;53.396;-1.510;2023-10-19T13:53:46;4;4;
55591;PMS5003;41454;53.396;-1.510;2023-10-19T13:56:13;9;8;
55591;PMS5003;41454;53.396;-1.510;2023-10-19T13:58:40;3;3;
55591;PMS5003;41454;53.396;-1.510;2023-10-19T14:01:08;5;4;
55591;PMS5003;41454;53.396;-1.510;2023-10-19T14:03:36;5;4;
55591;PMS5003;41454;53.396;-1.510;2023-10-19T14:06:04;3;3;
55591;PMS5003;41454;53.396;-1.510;2023-10-19T14:08:31;3;3;
55591;PMS5003;41454;53.396;-1.510;2023-10-19T14:11:02;3;3;
55591;PMS5003;41454;53.396;-1.510;2023-10-19T14:13:30;7;6;
55591;PMS5003;41454;53.396;-1.510;2023-10-19T14:15:57;6;4;
55591;PMS5003;41454;53.396;-1.510;2023-10-19T14:18:25;6;5;
55591;PMS5003;41454;53.396;-1.510;2023-10-19T14:20:52;6;5;
55591;PMS5003;41454;53.396;-1.510;2023-10-19T14:23:20;5;5;
55591;PMS5003;41454;53.396;-1.510;2023-10-19T14:25:47;3;3;
55591;PMS5003;41454;53.396;-1.510;2023-10-19T14:28:15;5;4;
55591;PMS5003;41454;53.396;-1.510;2023-10-19T14:30:42;6;5;
55591;PMS5003;41454;53.396;-1.510;2023-10-19T14:33:10;6;5;
55591;PMS5003;41454;53.396;-1.510;2023-10-19T14:35:38;3;3;
55591;PMS5003;41454;53.396;-1.510;2023-10-19T14:38:06;3;3;
55591;PMS5003;41454;53.396;-1.510;2023-10-19T14:40:33;7;6;
55591;PMS5003;41454;53.396;-1.510;2023-10-19T14:43:01;4;4;
55591;PMS5003;41454;53.396;-1.510;2023-10-19T14:45:28;4;4;
55591;PMS5003;41454;53.396;-1.510;2023-10-19T14:47:56;5;5;
55591;PMS5003;41454;53.396;-1.510;2023-10-19T14:50:24;3;1;
55591;PMS5003;41454;53.396;-1.510;2023-10-19T14:52:52;5;5;
55591;PMS5003;41454;53.396;-1.510;2023-10-19T14:55:20;4;4;
55591;PMS5003;41454;53.396;-1.510;2023-10-19T14:57:48;4;4;
55591;PMS5003;41454;53.396;-1.510;2023-10-19T15:00:17;4;4;
55591;PMS5003;41454;53.396;-1.510;2023-10-19T15:02:45;4;4;
55591;PMS5003;41454;53.396;-1.510;2023-10-19T15:05:12;5;4;
55591;PMS5003;41454;53.396;-1.510;2023-10-19T15:07:40;5;5;
55591;PMS5003;41454;53.396;-1.510;2023-10-19T15:10:08;6;6;
55591;PMS5003;41454;53.396;-1.510;2023-10-19T15:12:41;5;5;
55591;PMS5003;41454;53.396;-1.510;2023-10-19T15:15:09;4;4;
55591;PMS5003;41454;53.396;-1.510;2023-10-19T15:17:37;4;4;
55591;PMS5003;41454;53.396;-1.510;2023-10-19T15:20:06;7;4;
55591;PMS5003;41454;53.396;-1.510;2023-10-19T15:22:34;5;5;
55591;PMS5003;41454;53.396;-1.510;2023-10-19T15:25:02;4;4;
55591;PMS5003;41454;53.396;-1.510;2023-10-19T15:27:29;5;5;
55591;PMS5003;41454;53.396;-1.510;2023-10-19T15:29:57;6;5;
55591;PMS5003;41454;53.396;-1.510;2023-10-19T15:32:24;5;5;
55591;PMS5003;41454;53.396;-1.510;2023-10-19T15:34:52;6;6;
55591;PMS5003;41454;53.396;-1.510;2023-10-19T15:37:20;6;6;
55591;PMS5003;41454;53.396;-1.510;2023-10-19T15:39:47;6;6;
55591;PMS5003;41454;53.396;-1.510;2023-10-19T15:42:15;5;4;
55591;PMS5003;41454;53.396;-1.510;2023-10-19T15:44:42;8;8;
55591;PMS5003;41454;53.396;-1.510;2023-10-19T15:47:10;4;4;
55591;PMS5003;41454;53.396;-1.510;2023-10-19T15:49:37;6;6;
55591;PMS5003;41454;53.396;-1.510;2023-10-19T15:52:12;8;8;
55591;PMS5003;41454;53.396;-1.510;2023-10-19T15:54:39;7;6;
55591;PMS5003;41454;53.396;-1.510;2023-10-19T15:57:06;7;5;
55591;PMS5003;41454;53.396;-1.510;2023-10-19T15:59:33;5;5;
55591;PMS5003;41454;53.396;-1.510;2023-10-19T16:02:01;5;5;
55591;PMS5003;41454;53.396;-1.510;2023-10-19T16:04:29;6;6;
55591;PMS5003;41454;53.396;-1.510;2023-10-19T16:06:56;7;7;
55591;PMS5003;41454;53.396;-1.510;2023-10-19T16:09:23;8;8;
55591;PMS5003;41454;53.396;-1.510;2023-10-19T16:09:25;8;8;
55591;PMS5003;41454;53.396;-1.510;2023-10-19T16:11:52;10;10;
55591;PMS5003;41454;53.396;-1.510;2023-10-19T16:14:19;9;9;
55591;PMS5003;41454;53.396;-1.510;2023-10-19T16:16:46;11;10;
55591;PMS5003;41454;53.396;-1.510;2023-10-19T16:19:14;10;7;
55591;PMS5003;41454;53.396;-1.510;2023-10-19T16:21:41;10;7;
55591;PMS5003;41454;53.396;-1.510;2023-10-19T16:24:09;11;10;
55591;PMS5003;41454;53.396;-1.510;2023-10-19T16:26:37;8;7;
55591;PMS5003;41454;53.396;-1.510;2023-10-19T16:29:05;7;7;
55591;PMS5003;41454;53.396;-1.510;2023-10-19T16:31:34;8;5;
55591;PMS5003;41454;53.396;-1.510;2023-10-19T16:34:01;7;5;
55591;PMS5003;41454;53.396;-1.510;2023-10-19T16:36:28;6;6;